Time;durP1;ratioP1;P1;durP2;ratioP2;P2;SDS_P1;SDS_P2;PMS_P1;PMS_P2;Temp;Humidity;BMP_temperature;BMP_pressure;BME280_temperature;BME280_humidity;BME280_pressure;Samples;Min_cycle;Max_cycle;Signal;HPM_P1;HPM_P2
2022/07/02 00:01:51;;;;;;;58.72;49.30;;;23.30;58.40;;;;;;5026279;27;89987;-57
2022/07/02 00:04:20;;;;;;;57.80;49.17;;;23.40;58.40;;;;;;5033819;27;89857;-56
2022/07/02 00:06:47;;;;;;;57.67;49.33;;;23.40;58.60;;;;;;5030087;27;93984;-52
2022/07/02 00:09:13;;;;;;;58.05;49.33;;;23.30;58.50;;;;;;5032751;27;89506;-58
2022/07/02 00:11:41;;;;;;;57.13;49.10;;;23.30;58.50;;;;;;5030192;27;89828;-54
2022/07/02 00:14:08;;;;;;;57.63;49.45;;;23.30;58.50;;;;;;5021623;27;93621;-57
2022/07/02 00:16:34;;;;;;;57.35;49.15;;;23.30;58.50;;;;;;5028598;27;89575;-57
2022/07/02 00:19:01;;;;;;;58.45;49.25;;;23.30;58.50;;;;;;5017072;27;89608;-54
2022/07/02 00:21:26;;;;;;;57.22;49.08;;;23.20;58.50;;;;;;5025601;27;89454;-58
2022/07/02 00:23:52;;;;;;;57.88;49.45;;;23.20;58.40;;;;;;5032589;27;91311;-54
2022/07/02 00:26:31;;;;;;;56.78;48.95;;;23.30;58.50;;;;;;5010273;27;89956;-58
2022/07/02 00:29:15;;;;;;;57.03;48.83;;;23.30;58.40;;;;;;5033912;27;89955;-56
2022/07/02 00:31:41;;;;;;;57.63;49.15;;;23.30;58.40;;;;;;5023127;27;92177;-57
2022/07/02 00:34:08;;;;;;;57.05;49.25;;;23.30;58.50;;;;;;5034560;27;89659;-56
2022/07/02 00:36:33;;;;;;;57.72;49.25;;;23.20;58.50;;;;;;5026662;27;89844;-57
2022/07/02 00:39:00;;;;;;;56.85;48.97;;;23.20;58.50;;;;;;5031358;27;91048;-53
2022/07/02 00:41:27;;;;;;;56.72;49.08;;;23.20;58.50;;;;;;5013527;27;93166;-57
2022/07/02 00:43:54;;;;;;;57.38;49.25;;;23.20;58.50;;;;;;5038113;27;91371;-58
2022/07/02 00:46:21;;;;;;;57.13;49.08;;;23.20;58.50;;;;;;5024663;27;90141;-55
2022/07/02 00:48:47;;;;;;;57.85;49.05;;;23.20;58.40;;;;;;5033345;27;91385;-55
2022/07/02 00:51:13;;;;;;;57.60;49.20;;;23.20;58.40;;;;;;5016800;27;92735;-58
2022/07/02 00:53:38;;;;;;;57.83;49.25;;;23.20;58.40;;;;;;5025021;27;89704;-56
2022/07/02 00:56:04;;;;;;;57.40;49.13;;;23.20;58.50;;;;;;5021532;27;89376;-56
2022/07/02 00:58:31;;;;;;;57.58;49.10;;;23.20;58.50;;;;;;5025711;27;90305;-57
2022/07/02 01:00:59;;;;;;;56.97;49.03;;;23.20;58.50;;;;;;5028610;27;90202;-58
2022/07/02 01:03:26;;;;;;;56.58;48.85;;;23.20;58.60;;;;;;5025129;27;89517;-56
2022/07/02 01:05:52;;;;;;;56.95;49.25;;;23.20;58.50;;;;;;5036429;27;89152;-57
2022/07/02 01:11:07;;;;;;;57.85;49.10;;;23.10;58.40;;;;;;5033140;27;89805;-58
2022/07/02 01:13:33;;;;;;;56.63;48.92;;;23.10;58.40;;;;;;5026596;27;91682;-55
2022/07/02 01:16:00;;;;;;;56.47;48.90;;;23.10;58.40;;;;;;5036055;27;89884;-55
2022/07/02 01:18:25;;;;;;;56.70;49.03;;;23.10;58.40;;;;;;5025673;27;90265;-56
2022/07/02 01:20:51;;;;;;;56.65;48.75;;;23.10;58.40;;;;;;5033528;27;90105;-58
2022/07/02 01:23:17;;;;;;;56.80;48.92;;;23.10;58.40;;;;;;5025427;27;91577;-55
2022/07/02 01:25:53;;;;;;;56.83;49.13;;;23.10;58.40;;;;;;5016080;27;90017;-55
2022/07/02 01:28:19;;;;;;;56.80;48.80;;;23.10;58.40;;;;;;5026403;27;89835;-57
2022/07/02 01:30:46;;;;;;;56.58;48.90;;;23.10;58.50;;;;;;5033907;27;88784;-58
2022/07/02 01:33:12;;;;;;;57.72;49.03;;;23.10;58.40;;;;;;5031955;27;91135;-57
2022/07/02 01:35:38;;;;;;;56.70;48.95;;;23.10;58.50;;;;;;5028778;27;90156;-54
2022/07/02 01:38:03;;;;;;;56.15;48.65;;;23.10;58.50;;;;;;5022859;27;92953;-57
2022/07/02 01:40:29;;;;;;;56.50;48.85;;;23.10;58.50;;;;;;5035310;27;89680;-58
2022/07/02 01:42:55;;;;;;;57.55;48.85;;;23.10;58.40;;;;;;5028330;27;90112;-58
2022/07/02 01:45:20;;;;;;;56.30;48.70;;;23.10;58.50;;;;;;5032278;27;91340;-57
2022/07/02 01:47:46;;;;;;;57.35;48.92;;;23.00;58.50;;;;;;5025259;27;93526;-58
2022/07/02 01:50:12;;;;;;;56.90;48.85;;;23.00;58.50;;;;;;5031823;27;90447;-56
2022/07/02 01:52:38;;;;;;;57.13;49.10;;;23.00;58.50;;;;;;5029399;27;90056;-58
2022/07/02 01:55:04;;;;;;;56.95;48.75;;;23.00;58.50;;;;;;5035807;27;89605;-56
2022/07/02 01:57:33;;;;;;;57.10;49.15;;;23.00;58.50;;;;;;5019853;27;89751;-57
2022/07/02 01:59:59;;;;;;;56.47;48.83;;;23.00;58.50;;;;;;5028666;27;90100;-58
2022/07/02 02:02:25;;;;;;;56.50;48.70;;;23.00;58.50;;;;;;5026696;27;91184;-53
2022/07/02 02:04:51;;;;;;;56.72;49.08;;;23.00;58.50;;;;;;5026484;27;90816;-57
2022/07/02 02:07:16;;;;;;;56.13;48.63;;;23.00;58.60;;;;;;5022812;27;94708;-51
2022/07/02 02:09:42;;;;;;;57.08;48.92;;;22.90;58.60;;;;;;5027058;27;89901;-54
2022/07/02 02:12:08;;;;;;;57.67;48.92;;;22.90;58.60;;;;;;5025413;27;90796;-57
2022/07/02 02:14:34;;;;;;;57.38;48.67;;;22.90;58.60;;;;;;5018780;27;89623;-55
2022/07/02 02:17:00;;;;;;;56.42;48.92;;;22.90;58.60;;;;;;5031744;27;89817;-57
2022/07/02 02:19:26;;;;;;;56.80;48.83;;;22.90;58.60;;;;;;5033266;27;92432;-57
2022/07/02 02:21:51;;;;;;;56.13;48.60;;;22.90;58.70;;;;;;5017947;27;89877;-58
2022/07/02 02:24:17;;;;;;;56.70;48.80;;;22.90;58.80;;;;;;5023721;27;93936;-60
2022/07/02 02:26:43;;;;;;;57.65;48.88;;;22.80;58.80;;;;;;5026436;27;91053;-55
2022/07/02 02:29:08;;;;;;;56.95;48.78;;;22.80;58.80;;;;;;5026656;27;89880;-58
2022/07/02 02:31:34;;;;;;;56.70;48.97;;;22.80;58.80;;;;;;5034491;27;90308;-58
2022/07/02 02:34:00;;;;;;;56.35;48.72;;;22.80;58.90;;;;;;5032344;27;89542;-57
2022/07/02 02:36:26;;;;;;;57.35;48.72;;;22.70;59.00;;;;;;5032780;27;90794;-56
2022/07/02 02:38:51;;;;;;;57.25;48.72;;;22.80;59.10;;;;;;5021590;27;89284;-58
2022/07/02 02:41:17;;;;;;;56.30;48.85;;;22.70;59.20;;;;;;5036904;27;90151;-53
2022/07/02 02:43:43;;;;;;;57.35;48.60;;;22.70;59.30;;;;;;5030839;27;88844;-58
2022/07/02 02:46:09;;;;;;;56.15;48.67;;;22.70;59.30;;;;;;5032656;27;89573;-57
2022/07/02 02:48:36;;;;;;;56.33;48.67;;;22.70;59.30;;;;;;5028780;27;90259;-58
2022/07/02 02:51:03;;;;;;;56.22;48.63;;;22.60;59.40;;;;;;5024503;27;91500;-57
2022/07/02 02:53:28;;;;;;;57.03;48.47;;;22.60;59.30;;;;;;5028694;27;89743;-55
2022/07/02 02:55:54;;;;;;;56.33;48.80;;;22.60;59.30;;;;;;5035847;27;89812;-57
2022/07/02 02:58:20;;;;;;;56.45;48.88;;;22.60;59.40;;;;;;5036679;27;92920;-58
2022/07/02 03:00:45;;;;;;;55.75;48.55;;;22.60;59.30;;;;;;5018363;27;94703;-58
2022/07/02 03:03:11;;;;;;;57.42;48.75;;;22.50;59.30;;;;;;5032481;27;90060;-58
2022/07/02 03:05:37;;;;;;;56.30;48.53;;;22.50;59.40;;;;;;5034222;27;91068;-57
2022/07/02 03:08:03;;;;;;;57.30;48.72;;;22.50;59.40;;;;;;5033615;27;94693;-58
2022/07/02 03:10:28;;;;;;;56.00;48.47;;;22.50;59.50;;;;;;5028739;27;90214;-57
2022/07/02 03:12:54;;;;;;;56.15;48.53;;;22.40;59.60;;;;;;5033612;27;90750;-57
2022/07/02 03:15:19;;;;;;;56.13;48.55;;;22.40;59.70;;;;;;5025061;27;90758;-57
2022/07/02 03:17:45;;;;;;;56.72;48.45;;;22.40;59.80;;;;;;5034404;27;89961;-54
2022/07/02 03:20:11;;;;;;;57.55;48.65;;;22.40;59.80;;;;;;5027130;27;89538;-56
2022/07/02 03:22:37;;;;;;;55.88;48.35;;;22.40;59.80;;;;;;5037009;27;89505;-58
2022/07/02 03:25:03;;;;;;;56.08;48.53;;;22.40;59.90;;;;;;5021217;27;89830;-56
2022/07/02 03:27:30;;;;;;;55.80;48.65;;;22.40;59.80;;;;;;5027738;27;90037;-57
2022/07/02 03:29:56;;;;;;;57.55;48.58;;;22.30;59.90;;;;;;5031435;27;90554;-57
2022/07/02 03:32:25;;;;;;;56.55;48.85;;;22.30;59.90;;;;;;5026456;27;89811;-56
2022/07/02 03:34:52;;;;;;;56.53;48.70;;;22.20;60.00;;;;;;5018935;27;92880;-53
2022/07/02 03:37:18;;;;;;;59.08;48.83;;;22.20;60.00;;;;;;5030115;27;94357;-57
2022/07/02 03:39:43;;;;;;;56.33;48.55;;;22.20;60.00;;;;;;5009639;27;90582;-57
2022/07/02 03:42:09;;;;;;;57.38;48.65;;;22.20;60.00;;;;;;5033380;27;90094;-55
2022/07/02 03:44:35;;;;;;;57.33;48.90;;;22.20;60.00;;;;;;5028502;27;91708;-57
2022/07/02 03:47:01;;;;;;;55.60;48.45;;;22.20;60.00;;;;;;5032920;27;89608;-57
2022/07/02 03:49:27;;;;;;;56.60;48.85;;;22.20;60.00;;;;;;5031942;27;91920;-55
2022/07/02 03:51:52;;;;;;;57.03;48.75;;;22.20;60.00;;;;;;5031978;27;89991;-57
2022/07/02 03:54:18;;;;;;;56.30;48.60;;;22.20;60.00;;;;;;5021218;27;89384;-56
2022/07/02 03:56:44;;;;;;;56.30;48.75;;;22.10;60.00;;;;;;5029304;27;89329;-57
2022/07/02 03:59:09;;;;;;;55.97;48.80;;;22.20;60.10;;;;;;5021641;27;91073;-56
2022/07/02 04:01:35;;;;;;;56.70;48.78;;;22.10;60.00;;;;;;5032648;27;89789;-56
2022/07/02 04:04:00;;;;;;;57.72;48.95;;;22.10;60.00;;;;;;5021371;27;90801;-58
2022/07/02 04:06:26;;;;;;;55.92;48.58;;;22.10;60.10;;;;;;5028926;27;89632;-54
2022/07/02 04:08:52;;;;;;;56.25;48.50;;;22.10;60.10;;;;;;5033385;27;90160;-53
2022/07/02 04:11:17;;;;;;;56.72;48.75;;;22.10;60.10;;;;;;5019046;27;90033;-57
2022/07/02 04:13:43;;;;;;;56.47;48.60;;;22.10;60.10;;;;;;5036661;27;89694;-55
2022/07/02 04:16:09;;;;;;;56.88;48.53;;;22.10;60.10;;;;;;5024666;27;90071;-55
2022/07/02 04:18:34;;;;;;;55.47;48.53;;;22.10;60.10;;;;;;5031806;27;89771;-57
2022/07/02 04:21:01;;;;;;;55.85;48.45;;;22.10;60.10;;;;;;5031356;27;88857;-57
2022/07/02 04:23:26;;;;;;;57.25;48.55;;;22.10;60.00;;;;;;5034461;27;89707;-54
2022/07/02 04:25:52;;;;;;;57.92;48.70;;;22.20;60.10;;;;;;5029454;27;89819;-56
2022/07/02 04:28:18;;;;;;;55.45;48.25;;;22.20;60.00;;;;;;5033277;27;90833;-57
2022/07/02 04:30:43;;;;;;;55.53;48.42;;;22.20;60.10;;;;;;5018320;27;90898;-55
2022/07/02 04:33:09;;;;;;;56.47;48.65;;;22.20;60.00;;;;;;5031688;27;89608;-56
2022/07/02 04:35:34;;;;;;;55.80;48.50;;;22.20;60.10;;;;;;5020026;27;89762;-55
2022/07/02 04:38:00;;;;;;;55.33;48.55;;;22.20;60.20;;;;;;5019341;27;89814;-56
2022/07/02 04:40:26;;;;;;;56.70;48.53;;;22.20;60.20;;;;;;5021273;27;91955;-55
2022/07/02 04:42:51;;;;;;;56.22;48.72;;;22.20;60.20;;;;;;5027595;27;90019;-57
2022/07/02 04:45:17;;;;;;;57.05;48.55;;;22.20;60.20;;;;;;5019352;27;89311;-55
2022/07/02 04:47:43;;;;;;;55.47;48.50;;;22.20;60.10;;;;;;5033135;27;89822;-55
2022/07/02 04:50:09;;;;;;;56.05;48.35;;;22.20;60.10;;;;;;5024998;27;90066;-55
2022/07/02 04:52:34;;;;;;;56.88;48.63;;;22.20;59.80;;;;;;5035824;27;91000;-54
2022/07/02 04:55:00;;;;;;;55.85;48.80;;;22.30;59.90;;;;;;5026174;27;89843;-54
2022/07/02 04:57:26;;;;;;;56.10;48.72;;;22.30;59.80;;;;;;5022345;27;89811;-57
2022/07/02 04:59:51;;;;;;;55.97;48.75;;;22.30;59.80;;;;;;5025910;27;89445;-55
2022/07/02 05:02:17;;;;;;;55.88;48.67;;;22.30;59.70;;;;;;5020135;27;89486;-53
2022/07/02 05:04:43;;;;;;;56.20;48.35;;;22.30;59.70;;;;;;5037362;27;90079;-58
2022/07/02 05:07:08;;;;;;;55.63;48.35;;;22.40;59.60;;;;;;5015466;27;94241;-57
2022/07/02 05:09:34;;;;;;;55.38;48.35;;;22.40;59.50;;;;;;5035467;27;89116;-55
2022/07/02 05:12:00;;;;;;;57.30;48.55;;;22.40;59.50;;;;;;5024632;27;90471;-55
2022/07/02 05:14:27;;;;;;;55.17;48.47;;;22.40;59.40;;;;;;5029124;27;89588;-53
2022/07/02 05:16:52;;;;;;;55.60;48.47;;;22.40;59.20;;;;;;5026851;27;95027;-55
2022/07/02 05:19:18;;;;;;;55.38;48.45;;;22.40;59.30;;;;;;5034784;27;90084;-55
2022/07/02 05:21:44;;;;;;;56.28;48.60;;;22.40;59.20;;;;;;5030991;27;90816;-56
2022/07/02 05:24:10;;;;;;;56.15;48.70;;;22.40;59.10;;;;;;5034348;27;93767;-53
2022/07/02 05:26:35;;;;;;;56.42;48.67;;;22.40;59.10;;;;;;5032064;27;91298;-55
2022/07/02 05:29:02;;;;;;;54.95;48.33;;;22.40;59.00;;;;;;5032848;27;89976;-55
2022/07/02 05:31:27;;;;;;;56.00;48.38;;;22.40;59.00;;;;;;5024738;27;90292;-53
2022/07/02 05:33:53;;;;;;;55.53;48.53;;;22.40;58.90;;;;;;5034950;27;89535;-54
2022/07/02 05:36:19;;;;;;;56.08;48.53;;;22.40;59.00;;;;;;5023712;27;90025;-57
2022/07/02 05:38:44;;;;;;;55.63;48.67;;;22.40;59.00;;;;;;5023858;27;89390;-52
2022/07/02 05:41:10;;;;;;;56.25;48.65;;;22.40;58.90;;;;;;5023604;27;91609;-58
2022/07/02 05:43:36;;;;;;;57.20;49.03;;;22.40;59.00;;;;;;5035987;27;90210;-56
2022/07/02 05:46:01;;;;;;;56.55;48.95;;;22.40;58.90;;;;;;5021785;27;90149;-55
2022/07/02 05:48:27;;;;;;;57.45;48.75;;;22.40;58.80;;;;;;5019038;27;89958;-57
2022/07/02 05:50:53;;;;;;;56.35;48.75;;;22.50;58.90;;;;;;5030944;27;90975;-56
2022/07/02 05:53:18;;;;;;;56.15;48.55;;;22.40;58.90;;;;;;5028215;27;89720;-53
2022/07/02 05:55:44;;;;;;;57.33;48.92;;;22.50;58.90;;;;;;5006555;27;91938;-55
2022/07/02 05:58:11;;;;;;;56.45;48.63;;;22.40;58.90;;;;;;5000363;27;90574;-58
2022/07/02 06:00:36;;;;;;;56.08;48.85;;;22.40;58.80;;;;;;5006494;27;89890;-55
2022/07/02 06:03:02;;;;;;;57.53;48.83;;;22.50;58.80;;;;;;5012045;27;90030;-58
2022/07/02 06:08:12;;;;;;;56.38;48.83;;;22.50;58.80;;;;;;5008833;27;89758;-57
2022/07/02 06:10:38;;;;;;;56.22;48.80;;;22.50;58.80;;;;;;5012465;27;89473;-57
2022/07/02 06:13:04;;;;;;;57.22;48.92;;;22.50;58.70;;;;;;5012910;27;90138;-57
2022/07/02 06:15:30;;;;;;;56.40;48.92;;;22.50;58.60;;;;;;5009335;27;94641;-56
2022/07/02 06:17:59;;;;;;;56.70;48.85;;;22.50;58.70;;;;;;5007076;27;91480;-57
2022/07/02 06:20:26;;;;;;;57.35;48.88;;;22.50;58.70;;;;;;5019854;27;89524;-55
2022/07/02 06:22:51;;;;;;;56.63;48.88;;;22.50;58.60;;;;;;5017029;27;89280;-57
2022/07/02 06:25:17;;;;;;;56.40;48.67;;;22.60;58.60;;;;;;5015777;27;89817;-54
2022/07/02 06:27:42;;;;;;;57.22;48.95;;;22.50;58.60;;;;;;5007678;27;89732;-58
2022/07/02 06:30:09;;;;;;;55.95;48.55;;;22.60;58.60;;;;;;5016662;27;93536;-57
2022/07/02 06:32:36;;;;;;;56.40;48.83;;;22.60;58.50;;;;;;5004699;27;89755;-57
2022/07/02 06:35:02;;;;;;;57.63;49.00;;;22.60;58.50;;;;;;5015126;28;90339;-56
2022/07/02 06:37:28;;;;;;;55.80;48.67;;;22.60;58.40;;;;;;5007649;27;90027;-56
2022/07/02 06:39:53;;;;;;;57.05;48.95;;;22.60;58.40;;;;;;5006784;27;89980;-56
2022/07/02 06:42:19;;;;;;;56.42;48.72;;;22.60;58.40;;;;;;5005329;27;89752;-57
2022/07/02 06:44:52;;;;;;;56.03;48.60;;;22.60;58.50;;;;;;5006602;27;89718;-57
2022/07/02 06:47:18;;;;;;;56.75;48.72;;;22.60;58.50;;;;;;5007950;27;90519;-55
2022/07/02 06:49:44;;;;;;;56.95;48.83;;;22.60;58.40;;;;;;5008985;27;90213;-55
2022/07/02 06:52:11;;;;;;;56.45;48.70;;;22.60;58.90;;;;;;5005045;27;89776;-57
2022/07/02 06:54:37;;;;;;;57.28;48.88;;;22.60;58.30;;;;;;5018283;27;91792;-57
2022/07/02 06:57:04;;;;;;;56.22;48.65;;;22.60;58.30;;;;;;5032752;27;91392;-57
2022/07/02 06:59:29;;;;;;;56.85;48.72;;;22.60;58.20;;;;;;5015059;27;89773;-54
2022/07/02 07:01:55;;;;;;;56.63;48.95;;;22.70;58.30;;;;;;5028626;27;89669;-57
2022/07/02 07:04:21;;;;;;;56.53;48.78;;;22.70;58.20;;;;;;5031183;27;90169;-55
2022/07/02 07:07:05;;;;;;;57.13;48.88;;;22.70;58.20;;;;;;5028920;27;94936;-57
2022/07/02 07:09:34;;;;;;;56.33;48.67;;;22.70;58.20;;;;;;5028656;27;90103;-57
2022/07/02 07:12:00;;;;;;;56.50;48.83;;;22.70;58.20;;;;;;5033151;27;88643;-57
2022/07/02 07:14:26;;;;;;;56.30;48.85;;;22.70;58.20;;;;;;5034425;27;90562;-55
2022/07/02 07:16:51;;;;;;;55.97;48.42;;;22.70;58.20;;;;;;5033885;27;90386;-56
2022/07/02 07:19:17;;;;;;;56.72;48.80;;;22.70;58.10;;;;;;5038274;27;90628;-55
2022/07/02 07:21:43;;;;;;;56.20;48.75;;;22.70;58.10;;;;;;5035592;27;89960;-56
2022/07/02 07:24:09;;;;;;;56.78;48.95;;;22.70;58.00;;;;;;5018462;27;89780;-57
2022/07/02 07:26:36;;;;;;;57.15;49.05;;;22.70;58.00;;;;;;5026605;27;92818;-57
2022/07/02 07:29:02;;;;;;;57.10;49.13;;;22.70;57.90;;;;;;5027887;27;89849;-56
2022/07/02 07:31:28;;;;;;;56.67;48.90;;;22.70;58.00;;;;;;5036754;27;90016;-57
2022/07/02 07:33:56;;;;;;;56.30;48.75;;;22.70;58.00;;;;;;5027265;27;89600;-54
2022/07/02 07:36:24;;;;;;;56.33;48.75;;;22.70;57.90;;;;;;5019821;27;91890;-57
2022/07/02 07:38:50;;;;;;;56.78;48.72;;;22.70;57.90;;;;;;5022636;27;91873;-54
2022/07/02 07:41:19;;;;;;;56.47;48.78;;;22.80;58.00;;;;;;5018564;27;91958;-57
2022/07/02 07:43:45;;;;;;;57.30;48.97;;;22.80;57.90;;;;;;5019566;27;92687;-57
2022/07/02 07:46:11;;;;;;;58.25;49.03;;;22.80;58.00;;;;;;5034724;27;93700;-58
2022/07/02 07:48:37;;;;;;;57.83;49.10;;;22.80;57.80;;;;;;5024895;27;90095;-57
2022/07/02 07:51:02;;;;;;;56.85;48.85;;;22.80;57.90;;;;;;5028492;27;91921;-55
2022/07/02 07:53:28;;;;;;;56.90;49.08;;;22.80;57.80;;;;;;5032958;27;90064;-57
2022/07/02 07:55:54;;;;;;;56.88;48.95;;;22.80;58.00;;;;;;5037401;27;89673;-55
2022/07/02 07:58:20;;;;;;;57.25;49.13;;;22.80;57.80;;;;;;5029507;27;90994;-56
2022/07/02 08:00:46;;;;;;;56.67;48.83;;;22.80;57.80;;;;;;5024052;27;89670;-55
2022/07/02 08:03:14;;;;;;;56.88;48.83;;;22.80;57.80;;;;;;5024314;27;90547;-57
2022/07/02 08:05:45;;;;;;;57.00;49.15;;;22.80;57.80;;;;;;5026834;27;93198;-57
2022/07/02 08:08:11;;;;;;;56.88;49.00;;;22.80;57.70;;;;;;5020254;27;91795;-54
2022/07/02 08:10:37;;;;;;;57.13;49.00;;;22.80;57.70;;;;;;5033497;27;89909;-57
2022/07/02 08:13:03;;;;;;;57.20;49.05;;;22.80;57.70;;;;;;5030129;27;89539;-57
2022/07/02 08:15:28;;;;;;;58.17;49.15;;;22.80;57.60;;;;;;5032149;27;89756;-53
2022/07/02 08:17:54;;;;;;;56.88;48.92;;;22.80;57.70;;;;;;5023575;27;89629;-58
2022/07/02 08:20:20;;;;;;;57.22;48.85;;;22.80;57.70;;;;;;5033706;27;92703;-58
2022/07/02 08:22:47;;;;;;;56.78;48.97;;;22.90;57.70;;;;;;5014767;27;89968;-56
2022/07/02 08:25:14;;;;;;;57.60;49.03;;;22.80;58.20;;;;;;5029318;27;92834;-57
2022/07/02 08:27:43;;;;;;;56.85;48.95;;;22.90;57.60;;;;;;5029149;27;90318;-58
2022/07/02 08:30:10;;;;;;;57.92;49.03;;;22.90;57.50;;;;;;5025198;27;90044;-53
2022/07/02 08:32:36;;;;;;;56.85;49.00;;;22.90;57.50;;;;;;5028001;27;90797;-56
2022/07/02 08:35:02;;;;;;;58.03;49.15;;;22.90;57.50;;;;;;5028006;27;92582;-56
2022/07/02 08:37:28;;;;;;;56.88;48.85;;;22.90;57.40;;;;;;5030459;27;90261;-57
2022/07/02 08:39:54;;;;;;;57.05;48.97;;;22.90;57.40;;;;;;5024615;27;90054;-53
2022/07/02 08:42:30;;;;;;;57.47;49.10;;;22.90;57.40;;;;;;5034799;27;90607;-51
2022/07/02 08:45:03;;;;;;;57.00;49.05;;;22.90;57.30;;;;;;5018576;27;90225;-58
2022/07/02 08:47:29;;;;;;;57.03;48.95;;;23.00;57.30;;;;;;5029945;27;92487;-57
2022/07/02 08:49:57;;;;;;;57.33;49.05;;;23.00;57.30;;;;;;5030962;27;89107;-57
2022/07/02 08:52:25;;;;;;;57.13;49.15;;;22.90;57.20;;;;;;5027404;27;89695;-58
2022/07/02 08:54:52;;;;;;;57.20;48.92;;;23.00;57.20;;;;;;5003535;27;89918;-56
2022/07/02 08:57:18;;;;;;;57.50;48.92;;;23.00;57.10;;;;;;5005028;27;90451;-57
2022/07/02 08:59:45;;;;;;;57.97;49.22;;;23.00;57.10;;;;;;5005040;28;89837;-57
2022/07/02 09:02:15;;;;;;;57.22;49.08;;;23.00;57.10;;;;;;5014545;27;90078;-55
2022/07/02 09:04:45;;;;;;;57.25;49.05;;;23.10;57.10;;;;;;5008796;27;90387;-55
2022/07/02 09:07:13;;;;;;;57.22;49.08;;;23.10;57.20;;;;;;5009153;27;91146;-56
2022/07/02 09:09:41;;;;;;;57.72;49.22;;;23.10;57.20;;;;;;5004915;27;89912;-58
2022/07/02 09:12:16;;;;;;;57.60;49.28;;;23.10;57.10;;;;;;5013342;27;89438;-58
2022/07/02 09:14:43;;;;;;;57.40;49.08;;;23.10;57.10;;;;;;5004608;27;90747;-57
2022/07/02 09:17:11;;;;;;;57.40;49.13;;;23.10;57.00;;;;;;5016159;27;89570;-56
2022/07/02 09:19:38;;;;;;;57.67;49.15;;;23.10;57.00;;;;;;5002504;27;90263;-57
2022/07/02 09:22:05;;;;;;;57.67;49.25;;;23.20;57.00;;;;;;5012257;27;91217;-54
2022/07/02 09:24:32;;;;;;;58.67;49.35;;;23.20;56.90;;;;;;5001377;27;91319;-57
2022/07/02 09:27:07;;;;;;;57.28;49.13;;;23.20;56.90;;;;;;5008528;27;90125;-57
2022/07/02 09:29:47;;;;;;;57.95;49.15;;;23.20;56.90;;;;;;5009132;28;90210;-58
2022/07/02 09:32:14;;;;;;;57.75;49.25;;;23.20;56.90;;;;;;5006813;27;90250;-58
2022/07/02 09:34:47;;;;;;;57.20;49.05;;;23.20;56.80;;;;;;5000777;27;89582;-56
2022/07/02 09:37:17;;;;;;;57.15;48.95;;;23.20;56.80;;;;;;5014852;27;89948;-56
2022/07/02 09:39:43;;;;;;;57.85;49.28;;;23.30;56.80;;;;;;5006719;27;91677;-57
2022/07/02 09:42:23;;;;;;;57.08;49.10;;;23.20;56.80;;;;;;5014465;27;90270;-58
2022/07/02 09:44:49;;;;;;;57.58;49.25;;;23.20;56.80;;;;;;5012071;27;91268;-57
2022/07/02 09:47:15;;;;;;;57.50;49.15;;;23.20;56.80;;;;;;5006779;27;91962;-56
2022/07/02 09:49:50;;;;;;;57.47;49.22;;;23.30;56.80;;;;;;4998447;27;91271;-56
2022/07/02 09:52:17;;;;;;;57.58;49.22;;;23.30;56.80;;;;;;5012439;27;93376;-55
2022/07/02 09:54:44;;;;;;;57.53;49.20;;;23.30;56.80;;;;;;5019118;27;90009;-56
2022/07/02 09:57:11;;;;;;;57.88;49.33;;;23.30;56.90;;;;;;5027909;27;89798;-56
2022/07/02 09:59:39;;;;;;;59.65;49.45;;;23.30;56.90;;;;;;5025294;27;91044;-56
2022/07/02 10:02:05;;;;;;;58.50;49.47;;;23.30;56.90;;;;;;5034855;27;90227;-56
2022/07/02 10:04:32;;;;;;;57.72;49.33;;;23.30;56.90;;;;;;5031450;27;89870;-57
2022/07/02 10:07:00;;;;;;;57.78;49.25;;;23.30;56.90;;;;;;5036536;27;90028;-57
2022/07/02 10:09:26;;;;;;;58.15;49.42;;;23.30;56.90;;;;;;5027320;27;90280;-56
2022/07/02 10:11:53;;;;;;;58.03;49.42;;;23.30;56.90;;;;;;5023725;27;91679;-56
2022/07/02 10:14:21;;;;;;;57.70;49.35;;;23.30;56.90;;;;;;5024807;27;90285;-57
2022/07/02 10:16:51;;;;;;;58.45;49.35;;;23.40;57.00;;;;;;5031740;27;89727;-57
2022/07/02 10:19:17;;;;;;;57.75;49.45;;;23.40;57.10;;;;;;5012208;27;89998;-57
2022/07/02 10:21:44;;;;;;;58.03;49.42;;;23.40;57.10;;;;;;5028487;27;90841;-57
2022/07/02 10:24:11;;;;;;;57.90;49.33;;;23.40;57.10;;;;;;5037775;27;89864;-58
2022/07/02 10:26:37;;;;;;;57.78;49.42;;;23.40;57.20;;;;;;5032881;27;90275;-56
2022/07/02 10:29:03;;;;;;;57.47;49.22;;;23.40;57.20;;;;;;5038118;27;89314;-57
2022/07/02 10:31:36;;;;;;;57.72;49.20;;;23.50;57.30;;;;;;5024754;27;91565;-56
2022/07/02 10:34:21;;;;;;;58.00;49.53;;;23.50;57.20;;;;;;5035831;27;89672;-58
2022/07/02 10:36:47;;;;;;;58.08;49.42;;;23.40;57.20;;;;;;5021678;27;91357;-55
2022/07/02 10:39:16;;;;;;;58.15;49.53;;;23.50;57.30;;;;;;5031485;27;90370;-57
2022/07/02 10:41:41;;;;;;;58.33;49.47;;;23.50;57.30;;;;;;5026089;27;90184;-56
2022/07/02 10:44:09;;;;;;;58.40;49.63;;;23.50;57.30;;;;;;5034531;27;89774;-55
2022/07/02 10:46:36;;;;;;;58.33;49.58;;;23.50;57.40;;;;;;5024850;27;89506;-55
2022/07/02 10:49:05;;;;;;;58.03;49.35;;;23.50;57.30;;;;;;5028640;27;91954;-57
2022/07/02 10:51:35;;;;;;;58.10;49.55;;;23.50;57.30;;;;;;5020582;27;89647;-56
2022/07/02 10:54:03;;;;;;;57.88;49.22;;;23.50;57.30;;;;;;5035522;27;89952;-57
2022/07/02 10:56:30;;;;;;;58.40;49.58;;;23.50;57.20;;;;;;5021710;27;89782;-56
2022/07/02 10:58:56;;;;;;;58.28;49.55;;;23.50;57.30;;;;;;5029880;27;89524;-57
2022/07/02 11:01:24;;;;;;;58.38;49.70;;;23.50;57.30;;;;;;5023392;27;91288;-56
2022/07/02 11:03:58;;;;;;;59.22;50.33;;;23.50;57.30;;;;;;5026658;27;90394;-57
2022/07/02 11:06:26;;;;;;;58.40;49.70;;;23.60;57.30;;;;;;5025088;27;89896;-53
2022/07/02 11:09:01;;;;;;;58.88;50.00;;;23.50;57.40;;;;;;5032370;27;89797;-57
2022/07/02 11:11:47;;;;;;;58.28;49.67;;;23.60;57.50;;;;;;5025829;27;91791;-55
2022/07/02 11:14:18;;;;;;;58.35;49.65;;;23.60;57.40;;;;;;5031701;27;89933;-55
2022/07/02 11:16:43;;;;;;;58.33;49.55;;;23.60;57.40;;;;;;5033350;27;92688;-53
2022/07/02 11:19:12;;;;;;;58.70;49.80;;;23.60;57.50;;;;;;5025534;27;89028;-55
2022/07/02 11:21:39;;;;;;;58.75;49.55;;;23.60;57.50;;;;;;5015008;27;91286;-53
2022/07/02 11:24:06;;;;;;;58.25;49.55;;;23.60;57.40;;;;;;5021753;27;89663;-56
2022/07/02 11:26:32;;;;;;;58.33;49.55;;;23.60;57.40;;;;;;5031693;27;90803;-56
2022/07/02 11:29:05;;;;;;;58.42;49.65;;;23.60;57.30;;;;;;5031772;27;89905;-55
2022/07/02 11:31:39;;;;;;;58.50;49.63;;;23.60;57.30;;;;;;5021148;27;90229;-55
2022/07/02 11:34:05;;;;;;;58.47;49.75;;;23.60;57.40;;;;;;5036659;27;89874;-56
2022/07/02 11:36:31;;;;;;;58.20;49.47;;;23.60;57.30;;;;;;5019915;27;90202;-55
2022/07/02 11:38:56;;;;;;;58.63;49.70;;;23.60;57.30;;;;;;5032985;27;89582;-54
2022/07/02 11:41:33;;;;;;;59.05;49.75;;;23.60;57.30;;;;;;5029340;27;89970;-57
2022/07/02 11:44:00;;;;;;;58.90;49.75;;;23.70;57.50;;;;;;5034322;27;89699;-57
2022/07/02 11:46:28;;;;;;;58.78;49.95;;;23.60;57.40;;;;;;5028113;27;89655;-55
2022/07/02 11:48:58;;;;;;;58.92;49.95;;;23.60;57.80;;;;;;5021397;27;90861;-56
2022/07/02 11:51:24;;;;;;;58.47;49.78;;;23.60;57.50;;;;;;5023877;27;90823;-55
2022/07/02 11:54:00;;;;;;;58.47;49.88;;;23.60;57.50;;;;;;5022884;27;91876;-56
2022/07/02 11:56:27;;;;;;;58.58;49.80;;;23.70;57.50;;;;;;5022199;27;89733;-53
2022/07/02 11:58:54;;;;;;;58.50;49.65;;;23.70;57.50;;;;;;5033396;27;90257;-57
2022/07/02 12:01:30;;;;;;;59.33;49.85;;;23.70;57.50;;;;;;5034869;27;90193;-56
2022/07/02 12:03:58;;;;;;;58.70;49.78;;;23.70;57.50;;;;;;5033215;27;89650;-57
2022/07/02 12:06:26;;;;;;;58.60;49.75;;;23.70;57.50;;;;;;5033284;27;90632;-52
2022/07/02 12:08:53;;;;;;;59.10;49.67;;;23.70;57.60;;;;;;5025602;27;91683;-56
2022/07/02 12:11:20;;;;;;;58.45;49.63;;;23.70;57.50;;;;;;5025380;27;91338;-56
2022/07/02 12:13:46;;;;;;;59.00;49.75;;;23.70;57.50;;;;;;5027446;27;90542;-54
2022/07/02 12:16:14;;;;;;;58.45;49.65;;;23.70;57.60;;;;;;5035534;27;91219;-55
2022/07/02 12:18:40;;;;;;;58.67;49.75;;;23.70;57.50;;;;;;5022902;27;91264;-57
2022/07/02 12:21:17;;;;;;;58.50;49.60;;;23.70;57.50;;;;;;5023801;27;90193;-52
2022/07/02 12:23:48;;;;;;;58.85;49.83;;;23.70;57.50;;;;;;5020145;27;92163;-57
2022/07/02 12:26:25;;;;;;;58.83;49.83;;;23.70;57.60;;;;;;5029766;27;90124;-54
2022/07/02 12:31:53;;;;;;;58.80;49.65;;;23.70;57.70;;;;;;5017324;27;90117;-54
2022/07/02 12:34:20;;;;;;;59.85;49.65;;;23.70;57.80;;;;;;5025867;27;90648;-54
2022/07/02 12:36:51;;;;;;;58.55;49.78;;;23.70;57.70;;;;;;5032476;27;89898;-54